Terminal Aerodrome Forecast
Issued by NWS

Home | Current Version | Previous Version | Text Only | Print | Product List | Glossary On
Versions: 1 2 3 4 5 6 7 8 9 10 11 12 13 14 15 16 17 18 19
000
FTAK31 PAFA 270520
TAFAQT
TAF
PAQT 270520Z 2706/2806 VRB05KT P6SM OVC100
     FM271000 VRB03KT 1/2SM FG OVC005
     FM271700 VRB03KT 2SM BR SCT005 BKN008
     FM271800 20015KT P6SM SCT035 BKN050=

USA.gov is the U.S. government's official web portal to all federal, state and local government web resources and services.